x

9410840 - Santa Monica Pier (icac1) Weather Station

6:30 - Sun 29th Mar 2015 All times are PDT. -7 hours from GMT.

  • Wind
    5mph
  • Sea Temp 65°f
  • Air Temp 58°f
  • Sea Pressure 1017.7mb
  • 9410840 - Santa Monica Pier
  • 9410840 - Santa Monica Pier

More Historic Weather Station data

Upgrade to MSW Pro to gain access to the past 30 days of data for over 8000 Wavebouys and Weather Stations around the globe.

Join Pro

Comparision Forecast

View Surf forecast
   
dim. 03/29 6:30 5
mph
1017.7mb 65f 58f
6:24 2 5 mph 1017.6mb 65f 58f
6:18  -  2 mph 1017.7mb 65f 58f
6:12 1 2 mph 1017.7mb 65f 58f
6:06  -  2 mph 1017.6mb 65f 58f
6:00  -  2 mph 1017.5mb 65f 58f
5:54 2 3 mph 1017.4mb 65f 57f
5:48  -  2 mph 1017.4mb 65f 57f
5:42 2 3 mph 1017.3mb 65f 57f
5:36 2 3 mph 1017.3mb 65f 58f
5:30 2 3 mph 1017.3mb 65f 58f
5:24 2 3 mph 1017.3mb 65f 58f
5:18 2 5 mph 1017.3mb 65f 58f
5:12 3 6 mph 1017.3mb 65f 58f
5:06 3 6 mph 1017.3mb 65f 58f
5:00 3 6 mph 1017.3mb 65f 57f
4:54 6 7 mph 1017.3mb 65f 56f
4:48 5 7 mph 1017.3mb 65f 56f
4:42 3 5 mph 1017.3mb 64f 57f
4:36  -  mph 1017.4mb 64f 58f
4:30  -  mph 1017.3mb 64f 57f
4:24  -  mph 1017.3mb 65f -
4:18  -  mph 1017.1mb - -
sam. 03/28 10:30 1 3 mph 1017.8mb 65f 61f
10:24 2 3 mph 1017.8mb 66f 61f
10:18  -  2 mph 1017.7mb 66f 61f
10:12  -  2 mph 1017.7mb 66f 61f
10:06  -  2 mph 1017.5mb 66f 61f
10:00  -  3 mph 1017.5mb 66f 61f
9:54 2 3 mph 1017.5mb 66f 61f
9:48 2 3 mph 1017.5mb 66f 61f
9:42 2 3 mph 1017.4mb 66f 61f
9:36 3
mph
1017.4mb 66f 61f
9:30 2
mph
1017.3mb 66f 61f
9:24  -  1 mph 1017.2mb 66f 61f
9:18  -  1 mph 1017.2mb 66f 61f
9:12  -  2 mph 1017.2mb 66f 61f
8:54 2 5 mph 1017.1mb 66f 61f
8:48 2 3 mph 1017.1mb 66f 61f
8:42 1 2 mph 1017mb 66f 62f
8:36 1 5 mph 1017mb 66f 62f
8:30 3 5 mph 1016.9mb 66f 62f
8:24 3
mph
1016.9mb 67f 62f
8:18 3 6 mph - - -
8:12 3 6 mph 1017mb 67f 61f
8:06 5 7 mph 1016.9mb 67f 61f
8:00 3 6 mph 1016.8mb 67f 62f
7:54 5 6 mph 1016.8mb 67f 62f
7:48 5
mph
1016.6mb 67f -
7:42 5 6 mph 1016.7mb 67f 62f
7:36 5 7 mph 1016.7mb 67f 62f
7:30 6 7 mph 1016.7mb 67f 62f
7:24 6 7 mph 1016.6mb 67f 62f
7:18 6 7 mph 1016.6mb 67f 62f
7:12 6
mph
1016.6mb 67f 62f
7:06 6 7 mph 1016.5mb 67f 62f
7:00 6 7 mph 1016.5mb 67f 62f
6:54 7
mph
1016.5mb 67f 62f
6:48 6 7 mph 1016.4mb 67f 63f
6:42 6 7 mph 1016.5mb 67f 63f
6:36 6 7 mph 1016.5mb 67f 63f
6:30 7
mph
1016.5mb 67f 63f
6:24 6 7 mph 1016.5mb 67f 63f
6:18 6 7 mph - - -
6:12 7 8 mph 1016.5mb 67f 63f
6:06 7 8 mph 1016.4mb 67f 63f
6:00 7 8 mph 1016.4mb 67f 63f
5:54 7
mph
1016.4mb 67f 63f
5:48 7 8 mph 1016.5mb 67f 63f
5:42 8 9 mph 1016.5mb 67f 63f
5:36 8 9 mph 1016.5mb 67f 63f
5:30 8 9 mph 1016.5mb 67f 63f
5:24 8 9 mph 1016.5mb 68f 63f
5:18 8 9 mph 1016.5mb 68f 63f
5:12 8 9 mph 1016.5mb 67f 63f
5:06 8 9 mph 1016.5mb 67f 63f
5:00 8
mph
1016.5mb 67f 63f
4:54 7 9 mph 1016.5mb 67f 64f
4:48 7 9 mph 1016.5mb 67f 64f
4:42 8 9 mph 1016.6mb 67f 63f
4:36 7 8 mph 1016.6mb 67f 64f
4:30 7 8 mph 1016.6mb 67f 63f
4:24 6 7 mph 1016.6mb 66f 64f
4:18 6
mph
1016.5mb 66f 64f
4:12 5 6 mph 1016.5mb 66f 64f
4:06 5 6 mph 1016.5mb 66f 64f
4:00 5 6 mph 1016.4mb 66f 63f
3:54 6
mph
1016.4mb 66f 63f
3:48 6
mph
1016.4mb 67f 63f
3:42 6 7 mph 1016.5mb 67f 63f
3:36 6 7 mph 1016.6mb 67f 63f
3:30 6
mph
1016.8mb 67f 63f
3:24 5 7 mph 1016.8mb 67f 64f
3:18 6 7 mph 1016.9mb 67f 63f
3:12 6 7 mph 1017mb 67f 63f
3:06 6 8 mph 1017.1mb 67f 63f
3:00 6 8 mph 1017.2mb 66f 63f
2:54 6 7 mph 1017.2mb 66f 63f
2:48 6 7 mph 1017.2mb 66f 62f
2:42 6 7 mph 1017.3mb 66f 62f
2:36 6 7 mph 1017.3mb 66f 62f
2:30 6 7 mph 1017.3mb 66f 62f
2:24 6
mph
1017.4mb 66f 62f
2:18 5 6 mph 1017.5mb 66f 62f
2:12 5 7 mph 1017.6mb 66f 61f
2:06 6
mph
1017.7mb 66f 61f
2:00 6
mph
1017.7mb 66f 61f
1:54 3 6 mph 1017.8mb 66f 62f
1:48 5 6 mph 1017.8mb 66f 61f
1:42 3 6 mph 1017.8mb 66f 61f
1:36 5 7 mph 1017.9mb 65f 60f
1:30 6 7 mph 1018mb 66f 60f
1:24 6 7 mph 1018.1mb 66f 60f
1:18 6 7 mph 1018.2mb 65f 60f
1:12 3 6 mph 1018.4mb 65f 60f
1:06 6 7 mph 1018.5mb 65f 60f
1:00 3 5 mph 1018.6mb 65f 60f
12:54 3 6 mph 1018.7mb 65f 60f
12:48 5 6 mph 1018.8mb 65f 60f
12:42 6 8 mph 1018.8mb 65f 60f
12:36 6 7 mph 1018.8mb 65f 60f
12:30 6 7 mph 1018.9mb 65f 60f
12:24 5 7 mph 1018.9mb 65f 60f
12:18 5 7 mph 1019mb 65f 60f
12:12 6 8 mph 1019mb 65f 60f
12:06 8 9 mph 1019.1mb 65f 60f
12:00 8 9 mph 1019.2mb 66f 60f
11:54 8 10 mph 1019.2mb 66f 60f
11:48 9 11 mph 1019.2mb 66f 60f
11:42 10 11 mph 1019.3mb 66f 60f
11:36 10 11 mph 1019.3mb 66f 60f
11:30 10 11 mph 1019.3mb 66f 60f
11:24 10 11 mph 1019.2mb 66f 61f
11:18 9 10 mph 1019.3mb 66f 62f
11:12 10
mph
1019.2mb 66f 62f
11:06 8 9 mph 1019.1mb 66f 62f
11:00 7 8 mph 1019.1mb 66f 62f
10:54 7
mph
1019mb 66f 62f
10:48 6 7 mph - - -
10:42 7
mph
1018.9mb 66f 62f
10:36 7 8 mph 1018.9mb 66f 63f
10:30 7 8 mph 1019mb 66f 63f
10:24 8
mph
1018.9mb 65f 63f
10:18 8
mph
1018.9mb - -
10:12 8
mph
1018.8mb 65f 63f
10:06 6 7 mph 1018.8mb 65f 63f
10:00 7
mph
1018.7mb 65f 63f
9:54 5
mph
1018.7mb 65f 64f
9:48 5
mph
1018.7mb - -
9:42 3 5 mph 1018.7mb 65f 63f
9:36 3
mph
1018.7mb 65f 64f
9:30 3 6 mph 1018.7mb 65f 64f
9:24 3 5 mph 1018.7mb 65f 64f
9:18 3 6 mph 1018.7mb 65f 63f
9:12 3 6 mph 1018.8mb 65f 62f
9:06 5 8 mph 1018.7mb 65f 62f
9:00 7 8 mph 1018.7mb 65f 61f
8:54 6 7 mph 1018.8mb 65f 61f
8:48 7 9 mph 1018.7mb 65f 60f
8:42 7 9 mph 1018.6mb 65f 60f
8:36 8 9 mph 1018.7mb 65f 60f
8:30 8 9 mph 1018.6mb 65f 60f
8:24 7 8 mph 1018.6mb 65f 60f
8:18 7 8 mph 1018.6mb 65f 60f
8:12 6 9 mph 1018.5mb 65f 60f
8:06 7 9 mph 1018.5mb 65f 59f
8:00 6 9 mph 1018.5mb 65f 59f
7:54 7 9 mph 1018.4mb 65f 59f
7:48 5 9 mph 1018.3mb 65f 59f
7:42 8 9 mph 1018.3mb 65f 59f
7:24 5 8 mph 1018.4mb 65f 59f
7:18 7 8 mph 1018.3mb 65f 59f
7:12 7 9 mph 1018.3mb 65f 59f
7:06 7 8 mph 1018.2mb 65f 59f
7:00 6 7 mph 1018.1mb 65f 59f
6:54 6
mph
1018.2mb 65f 59f
6:48 6
mph
1018.1mb 65f 59f
6:42 5 6 mph 1018.1mb 65f 60f
6:36 5 7 mph 1018.1mb 65f 60f
6:30 6 7 mph 1018mb 65f 60f
6:24 6 7 mph 1018mb 65f 61f
6:18 5 8 mph 1017.9mb 65f 61f
6:12 7 8 mph 1017.8mb 65f 61f
6:06 5 7 mph 1017.8mb 65f 61f
6:00 5 7 mph 1017.8mb 65f 61f
5:54 6 7 mph 1017.8mb 65f 61f
5:48 6 7 mph 1017.8mb 65f 61f
5:42 6 8 mph 1017.8mb 65f 61f
5:36 6 7 mph 1017.8mb 65f 61f
5:30 6 8 mph 1017.8mb 65f 61f
5:24 7 8 mph 1017.7mb 65f 61f
5:18 6 7 mph 1017.8mb 65f 61f
5:12 6
mph
1017.7mb 65f 61f
5:06 6
mph
1017.7mb 65f 61f
5:00 5 6 mph 1017.7mb 65f 61f
4:54 3 5 mph 1017.7mb 65f 61f
4:48 3 5 mph 1017.7mb 65f 61f
4:42  -  2 mph 1017.7mb 65f 61f
4:36 1 3 mph 1017.7mb 65f 61f
4:30 3 5 mph 1017.5mb 65f 62f
4:24 5
mph
1017.4mb 65f 62f
4:18 5 6 mph 1017.5mb 65f 62f
4:12 6
mph
1017.5mb 65f 62f
4:06 5 6 mph 1017.5mb 65f 61f
4:00 3 5 mph 1017.6mb 65f 61f
3:54 3 6 mph 1017.6mb 65f 61f
3:48 5 8 mph 1017.6mb 65f 61f
3:42 7 8 mph 1017.6mb 65f 61f
3:36 6
mph
1017.7mb 65f 61f
3:30 6
mph
1017.7mb 65f 61f
3:24 6 8 mph 1017.7mb 65f 61f
3:18 7 8 mph 1017.6mb 65f 61f
3:12 7 8 mph 1017.7mb 65f 61f
3:06 7
mph
1017.8mb 65f 61f
3:00 7 8 mph 1017.7mb 65f 61f
2:54 6
mph
1017.7mb 65f 61f
2:48 5 6 mph 1017.6mb 65f 62f
2:42 6 8 mph 1017.6mb 66f 62f
2:36 6 9 mph 1017.6mb 66f 62f
2:30 7 8 mph 1017.6mb 66f 62f
2:24 6 8 mph 1017.7mb 66f 62f
2:18 6 8 mph 1017.6mb 66f 62f
2:12 7 8 mph 1017.6mb 66f 62f
2:06 7 8 mph 1017.7mb 66f 62f
2:00 6 7 mph 1017.7mb 66f 62f
1:54 3 6 mph 1017.7mb 66f 62f
1:48 5 7 mph 1017.6mb 66f 62f
1:42 6 7 mph 1017.6mb 66f 62f
1:36 5 6 mph 1017.6mb 66f 62f
1:30 5 7 mph 1017.7mb 66f 62f
1:24 6 7 mph 1017.7mb 66f 61f
1:18 6 7 mph 1017.8mb 66f 61f
1:12 6 7 mph 1017.9mb 66f 62f
1:06 6 7 mph 1018mb 66f 62f
1:00 6 8 mph 1018mb 66f 62f
12:54 7 8 mph 1018mb 66f 62f
12:48 7 8 mph 1018mb 66f 62f
12:42 6 8 mph 1018mb 66f 62f
12:36 7 9 mph 1017.9mb 66f 62f
12:30 7 8 mph 1017.9mb 66f 62f
12:24 7 8 mph 1018mb 66f 62f
12:18 7 9 mph 1017.9mb 66f 62f
12:12 8 9 mph 1017.9mb 66f 62f
12:06 8 9 mph 1017.8mb 66f 62f
ven. 03/27 11:54 7 9 mph 1017.8mb 66f 62f
11:48 8 10 mph 1017.7mb 66f 62f
11:36 8
mph
1017.6mb 66f 62f
11:30 6 8 mph 1017.7mb 66f 62f
11:00 7
mph
1017.6mb 66f 62f
10:48 7 8 mph 1017.6mb 66f 62f
10:42 7 8 mph 1017.6mb 66f 62f
10:36 6 7 mph 1017.6mb 66f 62f
10:30 6 7 mph 1017.6mb 66f 62f
10:24 6 8 mph 1017.6mb 66f 63f
10:18 6 7 mph 1017.5mb 66f 63f
10:12 6 8 mph 1017.5mb 66f 63f
10:06 8
mph
1017.4mb 66f 63f
10:00 7 8 mph 1017.3mb 66f 63f
9:54 8
mph
1017.3mb 66f 63f
9:48 7 8 mph 1017.2mb 66f 63f
9:42 7 8 mph 1017.2mb 66f 63f
9:36 8
mph
1017.1mb 66f 63f
9:30 7 9 mph 1017.1mb 66f 63f
9:24 7 8 mph 1017.1mb 66f 64f
9:18 7 8 mph 1017mb 66f 64f
9:12 7
mph
1017mb 66f 64f
9:06 6 7 mph 1016.8mb 66f 64f
9:00 6 7 mph 1016.8mb 66f 64f
8:54 5 7 mph 1016.8mb 67f 64f
8:48 7 8 mph 1016.7mb 67f 65f
8:42 8 9 mph 1016.7mb 67f 65f
8:36 8 9 mph 1016.6mb 67f 65f
8:30 9 10 mph 1016.6mb 66f 65f
8:24 9 10 mph 1016.5mb 66f 65f
8:06 7 8 mph 1016.2mb 66f 65f
8:00 8 9 mph 1016.2mb 66f 65f
7:54 9
mph
1016.1mb 66f 65f
7:48 8
mph
1016.1mb 66f 65f
7:42 7
mph
1016mb 66f 65f
7:36 5 6 mph 1016mb 66f 65f
7:30 5
mph
1015.9mb 66f 65f
7:24 3 5 mph 1015.8mb 66f 65f
7:18 3 5 mph 1015.8mb 66f 65f
7:12 3 5 mph 1015.8mb 66f 65f
7:06 5 6 mph 1015.8mb 66f 66f
7:00 5 6 mph 1015.8mb 66f 66f
6:48 6 7 mph 1015.8mb 66f 67f
6:42 6 8 mph 1015.8mb 66f 67f
6:36 6 8 mph 1015.8mb 66f 67f
6:30 7 8 mph 1015.9mb 66f 67f
6:24 7 8 mph 1015.9mb 66f 67f
6:18 6 8 mph 1015.9mb 65f 67f
6:12 6 7 mph 1015.9mb 65f 67f
6:06 6 8 mph 1015.8mb 66f 67f
6:00 6 7 mph 1015.9mb 66f 66f
5:54 6
mph
1016mb 66f 66f
5:48 5 6 mph 1016mb 66f 67f
5:42 5 6 mph 1016.1mb 66f 67f
5:36 5 6 mph 1016.1mb 66f 67f
5:30 5 6 mph 1016.1mb 66f 67f
5:18 2 3 mph 1016.1mb 66f 68f
5:12 2
mph
1016.1mb 66f 68f
5:06 1 2 mph 1016.2mb 66f 70f
5:00  -  3 mph 1016.2mb 66f 69f
4:54 2 5 mph 1016.3mb 66f 68f
4:48 2 3 mph 1016.3mb 66f -
4:42 2 7 mph 1016.4mb 66f 68f
4:36 6 7 mph 1016.4mb 66f 66f
4:30 5 7 mph 1016.5mb 66f 67f
4:24 5 6 mph 1016.5mb 66f 66f
4:18 5 7 mph 1016.6mb 66f 66f
4:12 5 6 mph 1016.6mb 66f 66f
4:06 5 7 mph 1016.7mb 66f 66f
4:00 6 8 mph 1016.7mb 66f 65f
3:48 7 8 mph 1016.8mb 66f 65f
3:42 8 10 mph 1016.9mb 66f 66f
3:36 8 9 mph 1017mb 66f 66f
3:30 7
mph
1016.9mb 66f 66f
3:24 6 8 mph 1016.9mb 66f 66f
3:18 8 9 mph 1017mb 66f 65f
3:12 7 8 mph 1017mb 67f 66f
3:06 7
mph
1017.1mb 66f 66f
3:00 7
mph
1017.2mb 66f 66f
2:54 7 8 mph 1017.3mb 66f 67f
2:36 5
mph
1017.4mb 65f 67f
2:30 5
mph
1017.5mb 65f 67f
2:24 3 5 mph 1017.5mb 65f 67f
2:18 3 5 mph 1017.5mb 65f 67f
2:12 3 6 mph 1017.6mb 65f 67f
2:06 5 6 mph 1017.8mb 65f 67f
2:00 5 7 mph 1017.9mb 65f 66f
1:54 7
mph
1018mb 65f 66f
1:48 5
mph
1018mb 65f 67f
1:42 5 6 mph 1018.1mb 65f 67f
1:36 6 7 mph 1018.1mb 65f 66f
1:30 6 7 mph 1018.2mb 65f 66f
1:24 7 8 mph 1018.3mb 65f 66f
1:18 5 6 mph 1018.2mb 65f 66f
1:12 5 6 mph 1018.3mb 65f 67f
1:06 6
mph
1018.4mb 65f 66f
1:00 6
mph
1018.4mb 65f 66f
12:54 5 7 mph 1018.5mb 65f 66f
12:48 6 7 mph 1018.6mb 65f 66f
12:42 3 6 mph 1018.6mb 65f 66f
12:36 6 7 mph 1018.7mb 65f 66f
12:30 5
mph
1018.7mb 65f 66f
12:24 3 6 mph 1018.7mb 65f 66f
12:18 6 7 mph 1018.8mb 65f 66f
12:06 2 3 mph 1018.6mb 65f 68f
12:00 2 5 mph - - -
11:54 5
mph
1018.9mb 65f 66f
11:48 5
mph
1019mb 65f 66f
11:42 5 6 mph 1019.1mb 64f 65f
11:36 6
mph
1019.1mb 64f 65f
11:30 6 8 mph 1019.1mb 64f 65f
11:24 7 8 mph 1019.3mb 64f 65f
11:18 3
mph
1019.1mb 64f 66f
11:12 3 5 mph 1019.1mb 64f 66f
11:06 3 5 mph 1019.1mb 64f 66f
11:00 3
mph
1019.1mb 64f 66f
10:48 5
mph
1019.2mb 64f 66f
10:42 2 5 mph 1019.2mb 64f 66f
10:36 5
mph
1019.2mb 64f 66f
10:30 3 6 mph 1019.3mb 64f 66f
10:24 2 5 mph 1019.4mb 64f 65f
10:18 2 5 mph 1019.3mb 64f 66f
10:12 6 9 mph 1019.3mb 64f 65f
10:06 9 10 mph 1019.2mb 64f 65f
10:00 9
mph
1019.1mb 64f 66f
9:54 9 10 mph 1019mb 64f 66f
9:48 8 9 mph 1018.9mb 64f 67f
9:42 8
mph
1018.8mb 64f 66f
9:36 6 7 mph 1018.7mb 64f 69f
9:30 6 7 mph 1018.6mb 64f 74f
9:24 7 8 mph 1018.6mb 63f 73f
9:18 6 7 mph 1018.6mb - -
9:12 6 8 mph 1018.6mb 63f 73f
9:06 7 9 mph 1018.5mb 63f 73f
9:00 5 7 mph 1018.5mb 63f 72f
8:54 5
mph
1018.4mb 63f 72f
8:48 3 5 mph 1018.4mb 63f 72f
8:42 3 5 mph 1018.4mb 63f 71f
8:36 1 2 mph 1018.4mb 63f 71f
8:30 2
mph
1018.4mb 62f 69f
8:24 1 2 mph 1018.4mb 62f 70f
8:18 3 5 mph 1018.3mb - -
8:12 3
mph
1018.3mb 62f 68f
8:06 2
mph
1018.3mb 62f 68f
8:00 2
mph
1018.3mb 62f 68f
7:54 2
mph
1018.3mb 62f 68f
7:48  -  1 mph 1018.2mb 62f 67f
7:42  -  2 mph 1018.2mb 62f 67f
7:36 1 2 mph 1018.1mb 62f 66f
7:30 1 2 mph 1018.1mb 62f 66f
7:24 2 3 mph 1018.1mb 62f 66f
7:18 3
mph
1018mb 62f 65f
7:12 1 3 mph 1017.9mb 62f 65f
7:06 2 5 mph 1017.8mb 62f 66f
7:00 3 5 mph 1017.6mb 62f 65f
6:54 5 6 mph 1017.6mb 62f 65f
6:48 3 5 mph 1017.6mb 62f 65f
6:42 2 5 mph 1017.5mb 62f 65f
6:36 3 7 mph 1017.4mb 62f 66f
6:30 5 8 mph 1017.3mb 62f 66f
6:24 7 8 mph 1017.3mb 63f 66f
6:18 5 6 mph 1017.3mb 63f 65f
6:12 3 5 mph 1017.3mb 63f 65f
6:06 5 6 mph 1017.3mb 63f 65f
6:00 3 5 mph 1017.2mb 63f 65f
5:54 3 5 mph 1017.1mb 63f 65f
5:48 2 6 mph 1017.1mb 63f 66f
5:42 5 6 mph 1017.1mb 63f 66f
5:36 3 7 mph 1017.1mb 63f 66f
5:30 7
mph
1017mb 63f 67f
5:24 6 7 mph 1017mb 63f 66f
5:18 6
mph
1017mb 63f -
5:12 2 3 mph 1017mb 63f 65f
5:06 3 5 mph 1017mb 63f 65f
5:00 5 6 mph 1017mb 63f 65f
4:54 6 8 mph 1017mb 63f 64f
4:48 7 9 mph 1017mb 63f 63f
4:42 6 7 mph 1016.9mb 63f 64f
4:36 5
mph
1016.9mb 63f 65f
4:30 3
mph
1016.9mb 63f 65f
4:24 2 3 mph 1016.8mb 63f 68f
4:18  -  5 mph 1016.8mb 63f 69f
4:12 5
mph
1016.8mb 63f 70f
4:06 3 5 mph 1016.8mb 63f 69f
4:00 3 6 mph 1016.8mb 63f 68f
3:54 3 5 mph 1016.7mb 63f 69f
3:48 2 3 mph 1016.8mb 63f 69f
3:42 2 3 mph 1016.8mb 63f 69f
3:36 2
mph
1016.8mb 63f 69f
3:30 1 3 mph 1016.8mb 63f 68f
3:24 3
mph
1016.8mb 63f 68f
3:18 3
mph
1016.8mb 63f 67f
3:12 2
mph
1016.9mb 63f 67f
3:06 3
mph
1017.1mb 63f 67f
3:00 2
mph
1017mb 63f 67f
2:54 2 3 mph 1017mb 63f 68f
2:48 2 3 mph - 63f 67f
2:42 2
mph
- 63f 67f
2:36 2 3 mph - 63f 67f
2:30 2 3 mph 1017.1mb 63f 66f
2:24 2 3 mph 1017.1mb 63f 67f
2:18 2 3 mph 1017.2mb 63f 67f
2:12 2 3 mph 1017.2mb 63f 67f
2:06 2 3 mph 1017.2mb 63f 67f
2:00 3 5 mph 1017.2mb - -
1:54 3 6 mph 1017.2mb - -
1:48 6
mph
1017.3mb 63f 68f
1:42 3 5 mph 1017.2mb 63f 68f
1:36 1 2 mph 1017.2mb 63f 68f
1:30 2 5 mph 1017.1mb 63f 68f
1:24 3 5 mph 1017.1mb 63f 69f
1:18 2 3 mph 1017.1mb 63f 67f
1:12 5 6 mph 1017.1mb 63f 67f
1:06 5
mph
1017.1mb 63f 67f
1:00 5
mph
1017.1mb 63f 68f
12:54 3 5 mph 1017.1mb 63f 69f
12:48 3 8 mph 1017.1mb 63f 70f
12:42 7 11 mph 1016.9mb 63f 72f
12:36 9 11 mph 1016.8mb 63f 72f
12:30 8 9 mph 1016.9mb 63f 71f
12:24 6 8 mph 1016.9mb 63f 71f
12:18 6 8 mph 1017mb 63f 71f
12:12 6 7 mph 1017mb 63f 71f
12:06 7 8 mph 1017mb 63f 70f
12:00 5 7 mph 1017mb - 69f
jeu. 03/26 11:54 5 7 mph 1017mb - 69f
11:36 6 8 mph 1017mb 64f 69f
10:54 3 5 mph 1017mb 64f 68f
10:48 2 3 mph 1017mb 64f 68f
10:42  -  1 mph 1017mb 64f 67f
10:36  -  1 mph 1017mb 64f 67f
10:30  -  2 mph 1017mb 64f 67f
10:24 1 2 mph 1017mb 64f 67f
10:18 2 3 mph 1017mb 64f 67f
10:12 1 2 mph 1017mb 64f 68f
10:06 2 5 mph 1017mb 64f 68f
10:00 3
mph
1017mb 64f 67f
9:54 1 2 mph 1017mb 64f 67f
9:48 2
mph
1016.9mb - -
9:42 2 3 mph 1016.9mb 64f 67f
9:36 2
mph
1016.9mb 64f 67f
9:30 1 2 mph 1016.8mb 64f 67f
9:24 2
mph
1016.8mb 64f 66f
9:18 2
mph
1016.8mb 64f 67f
9:12 2 3 mph 1016.8mb 64f 67f
9:06 3 5 mph 1016.8mb 64f 67f
9:00 3
mph
1016.8mb 64f 67f
8:54 3 5 mph 1016.7mb 64f 67f
8:48 5 6 mph 1016.7mb 64f 67f
8:42 5
mph
1016.7mb 64f 68f
8:36 5 6 mph 1016.7mb 64f 68f
8:30 6 7 mph 1016.7mb 64f 68f
8:24 5
mph
1016.6mb 64f 68f
8:18 2 3 mph 1016.6mb 64f 68f
8:12 1 2 mph 1016.6mb 64f 68f
8:06 1 3 mph 1016.5mb 64f 69f
8:00 2 3 mph 1016.5mb 64f 69f
7:54 2 5 mph 1016.4mb 64f 69f
7:48 3 5 mph 1016.3mb 64f 68f
7:42 3 5 mph 1016.3mb 64f 68f
7:36 3 7 mph 1016.3mb 64f 69f
7:30 6 8 mph 1016.3mb 64f 69f
7:24 6 7 mph 1016.2mb 64f 69f
7:18 5 6 mph 1016.2mb 64f 69f
7:12 1 2 mph 1016.2mb 64f 70f
7:06 2 8 mph 1016.1mb 65f 70f
7:00 8 10 mph 1016mb 64f 72f
6:54 7 9 mph 1015.9mb 64f 72f
6:48 7 9 mph 1015.9mb 64f 71f
6:42 9 14 mph 1015.8mb 64f 71f
6:36 10 13 mph 1015.8mb 64f 72f
6:30 7 9 mph 1015.8mb 64f 71f
6:24 5 6 mph 1015.9mb 64f 72f
6:18  -  2 mph 1015.9mb 64f 74f
6:12  -  2 mph 1015.9mb 64f 73f
6:06 1 5 mph 1015.9mb 64f 71f
6:00 2 3 mph 1016mb 64f 70f
5:54 5 6 mph 1016mb 64f 70f
5:48 3 7 mph 1015.9mb 64f 71f
5:42 5 7 mph 1016mb 64f 71f
5:36 5 9 mph 1015.9mb 64f 70f
5:30 6 8 mph 1016mb 64f 70f
5:24 6 8 mph 1016mb 64f 70f
5:18 5 6 mph 1016mb - -
5:12 2 5 mph 1016mb 64f 71f
5:06 3 7 mph 1016.1mb 64f 70f
5:00 5 6 mph 1016.1mb 64f 70f
4:54 2 6 mph 1016.2mb 63f 71f
4:48 5 7 mph 1016.1mb 63f 71f
4:42 6 7 mph 1016.1mb 63f 71f
4:36 6 7 mph 1016.2mb 63f 69f
4:30 5 6 mph 1016.2mb 63f 70f
4:24 6 8 mph 1016.3mb 63f 69f
4:18 8 13 mph 1016.3mb 63f 69f
4:12 8 10 mph 1016.3mb 63f 69f
4:06 7 8 mph 1016.4mb 63f 69f
4:00 6 7 mph 1016.4mb 63f 69f
3:54 5 7 mph 1016.5mb 63f 70f
3:48 7 8 mph 1016.4mb 63f 69f
3:42 6 7 mph 1016.5mb 63f 70f
3:36 5 8 mph 1016.5mb 63f 70f
3:30 7 8 mph 1016.6mb 64f 69f
3:24 6 8 mph 1016.6mb 64f 70f
3:18 6 7 mph 1016.7mb 64f 70f
3:12 5 6 mph 1016.8mb 64f 70f
3:06 6 8 mph 1016.9mb 64f 70f
3:00 6 8 mph 1017mb 64f 70f
2:54 8 9 mph 1017mb 64f 68f
2:48 7 9 mph 1017mb 64f 69f
2:42 7 9 mph 1017.1mb 64f 69f
2:36 6 7 mph 1017.2mb 64f 69f
2:30 5 6 mph 1017.3mb 64f 68f
2:24 3 5 mph 1017.4mb 64f 69f
2:18 3 5 mph 1017.4mb 64f 68f
2:12 3
mph
1017.5mb 64f 68f
2:06 3 5 mph 1017.5mb 64f 68f
2:00 3 6 mph 1017.6mb 63f 68f
1:54 6
mph
1017.7mb 63f 68f
1:48 5 7 mph 1017.7mb 63f 67f
1:42 6
mph
1017.9mb 63f 67f
1:36 5 7 mph 1018mb 63f 67f
1:30 7
mph
1018mb 63f 67f
1:24 6 8 mph 1018.1mb 63f 67f
1:18 6 7 mph 1018.2mb 63f 67f
1:12 6 7 mph 1018.3mb 63f 67f
1:06 6 7 mph 1018.4mb 63f 67f
1:00 6 8 mph 1018.4mb 63f 66f
12:54 6 7 mph 1018.5mb 63f 66f
12:48 6 8 mph 1018.6mb 63f 65f
12:42 6 7 mph 1018.6mb 63f 65f
12:36 5 6 mph 1018.8mb 63f 66f
12:30 5 6 mph 1018.8mb 63f 66f
12:24 6
mph
1018.8mb 63f 66f
12:18 6 7 mph 1018.8mb 63f 66f
12:12 6 7 mph 1018.9mb 63f 65f
12:06 6 7 mph 1018.9mb 62f 66f
12:00 6 7 mph 1019mb 62f 65f
11:54 6 7 mph 1019mb 62f 65f
11:48 6
mph
1019.1mb 62f 66f
11:42 5 6 mph 1019.1mb 62f 66f
11:36 5
mph
1019.2mb 62f 67f
11:30 5 6 mph 1019.1mb 62f 67f
11:24 3 5 mph 1019.2mb 62f 68f
11:18 5 6 mph 1019.2mb 62f 68f
11:12 5 6 mph 1019.1mb 62f 69f
11:06 3 5 mph 1019.1mb 62f 68f
11:00 5 6 mph 1019.1mb 62f 69f
10:54 6
mph
1019.1mb 62f 70f
10:48 3 5 mph 1019.2mb 62f 71f
10:42 5 6 mph 1019.2mb 62f 70f
10:36 5
mph
1019.3mb 62f 70f
10:30 5 6 mph 1019.3mb 62f 69f
10:24 6
mph
1019.3mb 62f 69f
10:18 5 7 mph 1019.4mb 62f 68f
10:12 7
mph
1019.3mb 62f 67f
10:06 7 8 mph 1019.3mb 62f 66f
10:00 7 8 mph 1019.3mb 62f 66f
9:54 7 8 mph 1019.3mb 62f 66f
9:48 7
mph
1019.3mb 62f 67f
9:42 6
mph
1019.2mb 62f 67f
9:36 3 5 mph 1019.1mb 62f 66f
9:30 2 3 mph 1019.1mb 62f 68f
9:24 2
mph
1019mb 62f 68f
9:18  -  1 mph 1019mb 62f 69f
9:12 1 2 mph 1018.9mb 62f 68f
9:06 2
mph
1018.8mb 62f 68f
9:00 2 3 mph 1018.8mb 62f 68f
8:54  -  1 mph 1018.8mb 62f 71f
8:48  -  1 mph 1018.7mb 62f 70f
8:42  -  2 mph 1018.7mb 62f 71f
8:36 1 2 mph 1018.6mb 62f 71f
8:30 2
mph
1018.7mb 62f 70f
8:24 1 2 mph 1018.6mb 62f 69f
8:18 2
mph
1018.6mb 62f 69f
8:12  -  1 mph 1018.5mb 62f 70f
8:06  -  1 mph 1018.5mb 62f 70f
8:00  -  2 mph 1018.5mb 62f 69f
7:54  -  1 mph 1018.5mb 62f 69f
7:48  -  mph 1018.4mb 62f 69f
7:42  -  mph 1018.4mb 62f 69f
7:36  -  1 mph 1018.4mb 62f 68f
7:30  -  mph 1018.3mb 62f 68f
7:24  -  1 mph 1018.3mb 62f 67f
7:18 2
mph
1018.3mb 62f 65f
7:12 2
mph
1018.1mb 62f 65f
7:06 2 3 mph 1018.1mb 62f 64f
7:00 3
mph
1018mb 62f 64f
6:54 1 2 mph 1017.9mb 62f 63f
6:48 3
mph
1017.8mb 61f 63f
6:42 3 5 mph 1017.9mb 61f 63f
6:36 3
mph
1017.8mb 61f 63f
6:30 1 3 mph 1017.7mb 61f 64f
6:24 2 5 mph 1017.7mb 61f 63f
6:18 2
mph
1017.6mb 61f 64f
6:12 2 6 mph 1017.6mb 61f 64f
6:06 3
mph
1017.6mb 61f 65f
6:00  -  5 mph 1017.5mb 61f 65f
5:54 2 3 mph 1017.4mb 61f 65f
5:48 1 6 mph 1017.4mb 61f 65f
5:42 3 6 mph 1017.4mb 61f 64f
5:36 2 7 mph 1017.4mb 61f 65f
5:30 8 9 mph 1017.3mb 61f 65f
5:24 7 8 mph 1017.3mb 61f 66f
5:18 5 6 mph 1017.3mb 61f 66f
5:12 5 8 mph 1017.3mb 61f 67f
5:06 8 10 mph 1017.3mb 61f 67f
5:00 7 10 mph 1017.2mb 61f 67f
4:54 10 11 mph 1017.3mb 61f 68f
4:48 8 11 mph 1017.3mb 61f 67f
4:42 9 10 mph 1017.2mb 61f 67f
4:36 10 13 mph 1017.3mb 61f 66f
4:30 9 11 mph 1017.2mb 61f 66f
4:24 9 11 mph 1017.2mb 61f 67f
4:18 8 13 mph 1017.2mb 61f 68f
4:12 10 11 mph 1017.2mb 61f 69f
4:06 9 10 mph 1017.3mb 61f 66f
4:00 7 9 mph 1017.3mb 61f 66f
3:54 7 9 mph 1017.3mb 61f 67f
3:48 7 9 mph 1017.2mb 61f 68f
3:42 5 6 mph 1017.2mb 61f 65f
3:36 6 8 mph 1017.2mb 61f 66f
3:30 7 9 mph 1017.1mb 62f 68f
3:24 8 9 mph 1017.1mb 62f 68f
3:18 8 10 mph 1017.2mb 62f 67f
3:12 8 10 mph 1017.1mb 62f 68f
3:06 8 9 mph 1017.2mb 62f 69f
3:00  -  mph 1017.1mb 62f 68f
2:54  -  mph 1017.1mb 62f 68f
2:48 8 10 mph 1017.1mb 62f -
2:42 9 10 mph 1017.1mb 62f -
2:36 5 7 mph 1017.2mb 62f -
2:30 6 8 mph 1017.2mb 62f 67f
2:24 6 9 mph 1017.2mb 62f 67f
2:18 5 7 mph 1017.2mb 62f 67f
2:12 2 6 mph 1017.3mb 61f 66f
2:06 2 7 mph 1017.3mb 62f 66f
2:00 7 8 mph 1017.3mb 62f 66f
1:54 6 9 mph 1017.3mb 61f 67f
1:48 7 9 mph 1017.3mb 62f 67f
1:42 8 10 mph 1017.3mb 62f 67f
1:36 8 10 mph 1017.3mb 62f 67f
1:30 8 10 mph 1017.3mb 62f 67f
1:24 7 9 mph 1017.3mb 62f 66f
1:18 7 8 mph 1017.3mb 62f 66f
1:12 5 6 mph 1017.3mb 62f 66f
1:06 6
mph
1017.3mb 62f 66f
1:00 5 6 mph 1017.3mb 63f 66f
12:54 3 5 mph 1017.3mb 63f 66f
12:48 3
mph
1017.2mb 63f 66f
12:42 1 3 mph 1017.2mb 64f 66f
12:36 3 5 mph 1017.2mb 64f 66f
12:30 3 5 mph 1017.2mb 64f 67f
12:24 2 3 mph 1017.2mb 64f 67f
12:18 3 5 mph 1017.2mb 64f 67f
12:12 2 3 mph 1017.1mb 64f 67f
12:06 1 2 mph 1017.2mb 64f 66f
12:00 1 2 mph 1017.2mb 64f 66f
mer. 03/25 11:54  -  mph 1017.2mb 64f 65f
11:30 2
mph
1017.1mb 64f -
11:24  -  2 mph 1017.2mb 64f 67f
11:00 1 2 mph 1017.1mb 64f 66f
10:54  -  mph 1017.1mb 64f 66f
10:48  -  5 mph 1017.1mb 64f 67f
10:42 2 3 mph 1017.1mb 64f 66f
10:36 1 3 mph 1017mb 64f 67f
10:30 2 3 mph 1016.9mb 64f 68f
10:24 2 3 mph 1016.9mb 64f 68f
10:18 2 3 mph 1016.9mb 64f 68f
10:12 3 6 mph 1016.8mb 64f 69f
10:06 1 6 mph 1016.7mb 64f 68f
10:00 5 9 mph 1016.6mb 64f 69f
9:54 7 9 mph 1016.6mb 64f 69f
9:48 6 8 mph 1016.5mb 64f 68f
9:42 6 7 mph 1016.5mb 64f 68f
9:36 6 8 mph 1016.6mb 64f 68f
9:30 6 7 mph 1016.6mb 64f 67f
9:24 7 9 mph 1016.6mb 64f 67f
9:18 7 9 mph 1016.6mb - -
9:12 7 10 mph 1016.6mb 64f 67f
9:06 7 8 mph 1016.6mb 65f 67f
9:00 6 8 mph 1016.5mb 65f 67f
8:54 6 7 mph 1016.4mb 65f 67f
8:48 7 8 mph 1016.3mb 65f 66f
8:42 7 8 mph 1016.3mb 65f 66f
8:36 7 8 mph 1016.2mb 65f 66f
8:30 7 8 mph 1016.2mb 65f 67f
8:24 7 9 mph 1016.1mb 65f 67f
8:18 7 8 mph 1016mb 65f 67f
8:12 7 8 mph 1015.9mb 65f 67f
8:06 7
mph
1015.9mb 65f 67f
8:00 6 7 mph 1015.9mb 65f 67f
7:54 7
mph
1015.8mb 65f 67f
7:48 7
mph
1015.9mb 65f 67f
7:42 5
mph
1015.8mb 65f 66f
7:36 2
mph
1015.8mb 65f 66f
7:30 1 2 mph 1015.7mb 65f 66f
7:24  -  2 mph 1015.7mb 65f 66f
7:18 1 2 mph 1015.7mb 65f 66f
7:12 2 6 mph 1015.7mb 65f 66f
7:06 5 6 mph 1015.7mb 65f 66f
7:00 2 3 mph 1015.7mb 65f 66f
6:54 3 6 mph 1015.7mb 65f 66f
6:48 6 8 mph 1015.7mb 65f 65f
6:42 5 7 mph 1015.7mb 65f 65f
6:36 6 9 mph 1015.8mb 65f 66f
6:30 8 14 mph 1015.8mb 65f 65f
6:24 13 15 mph 1015.8mb 65f 65f
6:18 10 13 mph 1015.9mb 65f 65f
6:12 9 11 mph 1015.9mb 65f 66f
6:06 7 9 mph 1016mb 65f 66f
6:00 7 10 mph 1016.1mb 65f 66f
5:54 10 16 mph 1016mb 65f 66f
5:48 16 20 mph 1016mb 65f 65f
5:42 17 20 mph 1016mb 65f 65f
5:36 17 20 mph 1016mb 65f 65f
5:30 17 20 mph 1016.1mb 65f 65f
5:24 17 18 mph 1016.1mb 65f 66f
5:18 17 18 mph 1016.1mb 65f 66f
5:12 16 18 mph 1016.1mb 65f 66f
5:06 15 17 mph 1016.3mb 65f 66f
5:00 13 14 mph 1016.3mb 65f 66f
4:54 9 10 mph 1016.4mb 65f 66f
4:48 9 10 mph 1016.4mb 65f 66f
4:42 8 10 mph 1016.4mb 65f 66f
4:36 9 10 mph 1016.4mb 65f 66f
4:30 9 10 mph 1016.5mb 64f 65f
4:24 8
mph
1016.6mb 64f 65f
4:18 7 8 mph 1016.6mb 64f 65f
4:12 7 8 mph 1016.7mb 64f 65f
4:06 7 9 mph 1016.8mb 64f 65f
4:00 8 9 mph 1016.8mb 64f 65f
3:54 9 10 mph 1016.9mb 64f 65f
3:48 8 9 mph 1016.9mb 65f 65f
3:42 9 10 mph 1016.9mb 65f 65f
3:36 9 10 mph 1017mb 64f 65f
3:30 9 10 mph 1017.1mb 64f 65f
3:24 9 11 mph 1017.1mb 64f 65f
3:18 10 11 mph 1017.1mb 64f 64f
3:12 9 10 mph 1017.2mb 64f 64f
3:06 8 9 mph 1017.3mb 64f 65f
3:00 9
mph
1017.3mb 64f 65f
2:54 9
mph
1017.3mb 64f 65f
2:48 8 9 mph 1017.4mb 64f 65f
2:42 7 9 mph 1017.5mb 64f 65f
2:36 9 10 mph 1017.5mb 64f 64f
2:30 9 10 mph 1017.6mb 64f 64f
2:24 8 10 mph 1017.6mb 64f 64f
2:18 9
mph
1017.7mb 64f 64f